Centerville, IA

9:56 PM CST on February 11, 2016 (GMT -0600)
Centerville Municipal

Weather History for KTVK - November, 2011

Change the Weather History Date:

Sunday, November 27, 2011

  Actual Average Record
Temperature  
Mean Temperature 34 °F -  
Max Temperature 37 °F 41 °F 72 °F (1990)
Min Temperature 32 °F 26 °F 9 °F (1955)
Degree Days  
Heating Degree Days 30    
Moisture  
Dew Point 27 °F    
Average Humidity 75    
Maximum Humidity 87    
Minimum Humidity 70    
Precipitation  
Precipitation 0.00 in - - ()
Sea Level Pressure  
Sea Level Pressure 30.14 in    
Wind  
Wind Speed 19 mph (NNW)    
Max Wind Speed 25 mph    
Max Gust Speed 36 mph    
Visibility 10 miles    
Events      
Averages and records for this station are not official NWS values.
T = Trace of Precipitation, MM = Missing Value Source: NWS Daily Summary

Daily Weather History Graph

Daily Weather History Graph

Search for Another Location

Airport or City:

Trip Planner

Search our weather history database for the weather conditions in past years. The results will help you decide how hot, cold, wet, or windy it might be!

Date:

Astronomy

Nov. 27, 2011 Rise Set
Actual Time 7:11 AM CST 4:46 PM CST
Civil Twilight 6:41 AM CST 5:16 PM CST
Nautical Twilight 6:07 AM CST 5:50 PM CST
Astronomical Twilight 5:34 AM CST 6:23 PM CST
Moon 9:37 AM CST (11/27) 7:25 PM CST (11/27)
Length of Visible Light 10h 34m
Length of Day
9h 34m
Waxing Crescent, 8% of the Moon is Illuminated
Nov 27
Waxing Crescent
Dec 2
First Quarter
Dec 10
Full
Dec 17
Last Quarter
Dec 24
New

Hourly Weather History & Observations

Time (CST) Temp. Windchill Dew Point Humidity Pressure Visibility Wind Dir Wind Speed Gust Speed Precip Events Conditions
12:15 AM 37.4 °F 26.4 °F 32.0 °F 81% 30.06 in 10.0 mi NNW 23.0 mph 31.1 mph N/A   Overcast
12:55 AM 37.4 °F 25.9 °F 32.0 °F 81% 30.05 in 10.0 mi NNW 25.3 mph 34.5 mph N/A   Overcast
1:15 AM 37.4 °F 26.4 °F 32.0 °F 81% 30.05 in 10.0 mi NNW 23.0 mph 29.9 mph N/A   Overcast
1:35 AM 37.4 °F 27.2 °F 32.0 °F 81% 30.05 in 10.0 mi NNW 19.6 mph 24.2 mph N/A   Overcast
2:15 AM 35.6 °F 24.2 °F 32.0 °F 87% 30.06 in 10.0 mi NNW 21.9 mph 32.2 mph N/A   Overcast
2:35 AM 35.6 °F 23.7 °F 30.2 °F 81% 30.07 in 10.0 mi NNW 24.2 mph 29.9 mph N/A   Overcast
2:55 AM 35.6 °F 25.2 °F 28.4 °F 75% 30.07 in 10.0 mi NNW 18.4 mph 32.2 mph N/A   Overcast
3:15 AM 35.6 °F 25.2 °F 28.4 °F 75% 30.08 in 10.0 mi NNW 18.4 mph 26.5 mph N/A   Overcast
3:35 AM 35.6 °F 23.7 °F 28.4 °F 75% 30.08 in 10.0 mi NNW 24.2 mph 31.1 mph N/A   Overcast
3:55 AM 35.6 °F 24.8 °F 28.4 °F 75% 30.08 in 10.0 mi NNW 19.6 mph 28.8 mph N/A   Overcast
4:15 AM 35.6 °F 25.9 °F 28.4 °F 75% 30.09 in 10.0 mi NNW 16.1 mph 28.8 mph N/A   Overcast
4:35 AM 35.6 °F 26.2 °F 28.4 °F 75% 30.09 in 10.0 mi NNW 15.0 mph 24.2 mph N/A   Overcast
5:15 AM 35.6 °F 24.0 °F 28.4 °F 75% 30.09 in 10.0 mi NNW 23.0 mph 31.1 mph N/A   Overcast
5:35 AM 35.6 °F 24.8 °F 28.4 °F 75% 30.09 in 10.0 mi NNW 19.6 mph 24.2 mph N/A   Overcast
5:55 AM 35.6 °F 24.5 °F 28.4 °F 75% 30.09 in 10.0 mi NNW 20.7 mph 26.5 mph N/A   Overcast
6:15 AM 35.6 °F 24.0 °F 26.6 °F 70% 30.11 in 10.0 mi NNW 23.0 mph 28.8 mph N/A   Overcast
6:35 AM 35.6 °F 24.2 °F 26.6 °F 70% 30.12 in 10.0 mi NNW 21.9 mph 33.4 mph N/A   Overcast
6:55 AM 33.8 °F 22.2 °F 26.6 °F 75% 30.12 in 10.0 mi NNW 20.7 mph 35.7 mph N/A   Overcast
7:15 AM 33.8 °F 22.2 °F 26.6 °F 75% 30.13 in 10.0 mi NNW 20.7 mph 32.2 mph N/A   Overcast
7:35 AM 33.8 °F 21.6 °F 26.6 °F 75% 30.13 in 10.0 mi NNW 23.0 mph 33.4 mph N/A   Overcast
7:55 AM 33.8 °F 23.9 °F 26.6 °F 75% 30.14 in 10.0 mi NNW 15.0 mph 28.8 mph N/A   Overcast
8:15 AM 33.8 °F 21.6 °F 26.6 °F 75% 30.15 in 10.0 mi NNW 23.0 mph 34.5 mph N/A   Overcast
8:35 AM 33.8 °F 23.9 °F 26.6 °F 75% 30.15 in 10.0 mi NNW 15.0 mph 25.3 mph N/A   Overcast
8:55 AM 33.8 °F 21.6 °F 26.6 °F 75% 30.16 in 10.0 mi NNW 23.0 mph 27.6 mph N/A   Overcast
9:15 AM 33.8 °F 22.2 °F 26.6 °F 75% 30.16 in 10.0 mi North 20.7 mph 28.8 mph N/A   Overcast
9:35 AM 33.8 °F 21.6 °F 26.6 °F 75% 30.16 in 10.0 mi NNW 23.0 mph 32.2 mph N/A   Overcast
9:55 AM 33.8 °F 21.3 °F 26.6 °F 75% 30.16 in 10.0 mi NNW 24.2 mph 28.8 mph N/A   Overcast
10:15 AM 33.8 °F 23.9 °F 26.6 °F 75% 30.17 in 10.0 mi NNW 15.0 mph 31.1 mph N/A   Overcast
10:35 AM 33.8 °F 23.5 °F 26.6 °F 75% 30.17 in 10.0 mi NNW 16.1 mph 27.6 mph N/A   Overcast
10:55 AM 33.8 °F 21.9 °F 26.6 °F 75% 30.17 in 10.0 mi NNW 21.9 mph 26.5 mph N/A   Overcast
11:15 AM 33.8 °F 22.5 °F 26.6 °F 75% 30.17 in 10.0 mi NW 19.6 mph 24.2 mph N/A   Overcast
11:35 AM 35.6 °F 24.8 °F 26.6 °F 70% 30.16 in 10.0 mi NW 19.6 mph 26.5 mph N/A   Overcast
11:55 AM 35.6 °F 24.5 °F 26.6 °F 70% 30.16 in 10.0 mi NNW 20.7 mph 29.9 mph N/A   Overcast
12:15 PM 35.6 °F 24.8 °F 26.6 °F 70% 30.16 in 10.0 mi NNW 19.6 mph 24.2 mph N/A   Overcast
12:35 PM 35.6 °F 25.9 °F 26.6 °F 70% 30.16 in 10.0 mi NNW 16.1 mph 23.0 mph N/A   Overcast
12:55 PM 35.6 °F 25.5 °F 26.6 °F 70% 30.16 in 10.0 mi NNW 17.3 mph 24.2 mph N/A   Overcast
1:15 PM 35.6 °F 26.2 °F 26.6 °F 70% 30.16 in 10.0 mi NW 15.0 mph 20.7 mph N/A   Overcast
1:35 PM 35.6 °F 27.1 °F 26.6 °F 70% 30.16 in 10.0 mi NNW 12.7 mph - N/A   Overcast
1:55 PM 35.6 °F 24.5 °F 26.6 °F 70% 30.15 in 10.0 mi NNW 20.7 mph 26.5 mph N/A   Overcast
2:15 PM 35.6 °F 26.2 °F 26.6 °F 70% 30.15 in 10.0 mi NNW 15.0 mph - N/A   Overcast
2:35 PM 35.6 °F 27.1 °F 26.6 °F 70% 30.15 in 10.0 mi NNW 12.7 mph - N/A   Overcast
2:55 PM 35.6 °F 25.5 °F 26.6 °F 70% 30.15 in 10.0 mi NW 17.3 mph 23.0 mph N/A   Overcast
3:15 PM 35.6 °F 28.6 °F 26.6 °F 70% 30.16 in 10.0 mi NNW 9.2 mph - N/A   Overcast
3:35 PM 33.8 °F 23.2 °F 26.6 °F 75% 30.16 in 10.0 mi NW 17.3 mph - N/A   Overcast
3:55 PM 33.8 °F 25.3 °F 26.6 °F 75% 30.17 in 10.0 mi NNW 11.5 mph 24.2 mph N/A   Overcast
4:15 PM 33.8 °F 24.3 °F 26.6 °F 75% 30.18 in 10.0 mi NNW 13.8 mph 19.6 mph N/A   Overcast
4:35 PM 33.8 °F 23.9 °F 26.6 °F 75% 30.18 in 10.0 mi NNW 15.0 mph - N/A   Overcast
4:55 PM 32.0 °F 21.6 °F 26.6 °F 80% 30.18 in 10.0 mi NNW 15.0 mph - N/A   Overcast
5:15 PM 32.0 °F 21.2 °F 26.6 °F 80% 30.19 in 10.0 mi North 16.1 mph 19.6 mph N/A   Overcast
5:35 PM 32.0 °F 21.2 °F 26.6 °F 80% 30.19 in 10.0 mi NNW 16.1 mph - N/A   Overcast
5:55 PM 32.0 °F 22.5 °F 26.6 °F 80% 30.20 in 10.0 mi North 12.7 mph - N/A   Overcast
6:15 PM 32.0 °F 24.8 °F 26.6 °F 80% 30.20 in 10.0 mi NNW 8.1 mph - N/A   Overcast
6:55 PM 32.0 °F 23.0 °F 26.6 °F 80% 30.20 in 10.0 mi NNW 11.5 mph - N/A   Overcast
7:15 PM 32.0 °F 24.2 °F 26.6 °F 80% 30.21 in 10.0 mi NNW 9.2 mph - N/A   Overcast
7:35 PM 32.0 °F 24.2 °F 26.6 °F 80% 30.20 in 10.0 mi NNW 9.2 mph - N/A   Overcast
7:55 PM 32.0 °F 24.2 °F 26.6 °F 80% 30.21 in 10.0 mi NNW 9.2 mph - N/A   Overcast
8:35 PM 32.0 °F 24.2 °F 26.6 °F 80% 30.21 in 10.0 mi North 9.2 mph - N/A   Overcast
8:55 PM 32.0 °F 24.8 °F 26.6 °F 80% 30.21 in 10.0 mi NNW 8.1 mph - N/A   Overcast
9:15 PM 32.0 °F 24.2 °F 26.6 °F 80% 30.21 in 10.0 mi North 9.2 mph - N/A   Overcast
9:35 PM 32.0 °F 24.2 °F 24.8 °F 75% 30.21 in 10.0 mi North 9.2 mph - N/A   Overcast
9:55 PM 32.0 °F 24.8 °F 24.8 °F 75% 30.21 in 10.0 mi NNW 8.1 mph - N/A   Overcast
10:15 PM 32.0 °F 25.6 °F 26.6 °F 80% 30.21 in 10.0 mi NNE 6.9 mph - N/A   Overcast
10:35 PM 32.0 °F 24.2 °F 24.8 °F 75% 30.20 in 10.0 mi North 9.2 mph - N/A   Overcast
11:15 PM 32.0 °F 26.4 °F 24.8 °F 75% 30.20 in 10.0 mi North 5.8 mph - N/A   Overcast
11:35 PM 32.0 °F 24.2 °F 24.8 °F 75% 30.19 in 10.0 mi North 9.2 mph - N/A   Overcast
11:55 PM 32.0 °F 24.2 °F 24.8 °F 75% 30.18 in 10.0 mi North 9.2 mph - N/A   Overcast